createdAt,value
2023-05-21T00:00:49.198Z,5.53
2023-05-21T00:03:15.874Z,6.15
2023-05-21T00:05:44.185Z,6.22
2023-05-21T00:08:11.032Z,7.07
2023-05-21T00:10:37.591Z,6.22
2023-05-21T00:13:05.170Z,6.93
2023-05-21T00:15:31.722Z,6.93
2023-05-21T00:17:58.259Z,7.35
2023-05-21T00:20:24.952Z,7.13
2023-05-21T00:22:52.840Z,8.82
2023-05-21T00:25:19.389Z,9.00
2023-05-21T00:27:46.033Z,5.95
2023-05-21T00:30:12.696Z,9.77
2023-05-21T00:32:39.351Z,6.05
2023-05-21T00:35:07.207Z,8.93
2023-05-21T00:37:33.785Z,8.40
2023-05-21T00:40:01.971Z,8.05
2023-05-21T00:42:28.557Z,6.57
2023-05-21T00:44:55.070Z,5.80
2023-05-21T00:47:21.684Z,7.63
2023-05-21T00:49:48.713Z,9.32
2023-05-21T00:52:15.411Z,5.68
2023-05-21T00:54:41.997Z,6.97
2023-05-21T00:57:10.174Z,7.65
2023-05-21T00:59:36.941Z,8.23
2023-05-21T01:02:03.681Z,6.47
2023-05-21T01:04:30.410Z,7.10
2023-05-21T01:06:56.922Z,7.18
2023-05-21T01:09:23.528Z,5.45
2023-05-21T01:11:51.188Z,10.27
2023-05-21T01:14:20.524Z,5.97
2023-05-21T01:16:50.058Z,4.65
2023-05-21T01:19:18.731Z,6.95
2023-05-21T01:21:46.608Z,6.40
2023-05-21T01:24:14.766Z,6.22
2023-05-21T01:26:41.386Z,4.38
2023-05-21T01:29:08.247Z,7.45
2023-05-21T01:31:40.609Z,6.30
2023-05-21T01:34:11.074Z,7.65
2023-05-21T01:36:41.014Z,8.00
2023-05-21T01:39:14.520Z,6.07
2023-05-21T01:44:11.879Z,8.30
2023-05-21T01:46:38.774Z,7.43
2023-05-21T01:49:06.089Z,8.15
2023-05-21T01:51:33.284Z,6.15
2023-05-21T01:53:59.836Z,6.75
2023-05-21T01:56:26.346Z,7.63
2023-05-21T01:58:55.798Z,6.85
2023-05-21T02:01:22.396Z,8.57
2023-05-21T02:03:49.033Z,7.53
2023-05-21T02:06:15.603Z,6.20
2023-05-21T02:08:42.132Z,7.75
2023-05-21T02:11:08.671Z,7.38
2023-05-21T02:13:35.195Z,7.57
2023-05-21T02:16:03.082Z,7.05
2023-05-21T02:18:29.601Z,8.05
2023-05-21T02:20:56.156Z,5.05
2023-05-21T02:23:22.688Z,6.15
2023-05-21T02:25:49.301Z,6.30
2023-05-21T02:28:15.832Z,6.80
2023-05-21T02:30:42.329Z,8.30
2023-05-21T02:33:10.304Z,6.28
2023-05-21T02:35:37.088Z,7.10
2023-05-21T02:38:03.828Z,8.70
2023-05-21T02:40:30.396Z,7.25
2023-05-21T02:42:56.940Z,6.18
2023-05-21T02:45:23.575Z,7.28
2023-05-21T02:47:50.157Z,7.03
2023-05-21T02:50:18.057Z,8.43
2023-05-21T02:52:44.587Z,7.28
2023-05-21T02:55:11.200Z,6.13
2023-05-21T02:57:37.736Z,8.48
2023-05-21T03:00:05.346Z,8.07
2023-05-21T03:02:32.013Z,7.30
2023-05-21T03:04:58.590Z,12.88
2023-05-21T03:07:26.623Z,7.22
2023-05-21T03:09:53.182Z,8.32
2023-05-21T03:12:19.829Z,9.90
2023-05-21T03:14:46.437Z,6.78
2023-05-21T03:17:13.055Z,6.97
2023-05-21T03:19:40.721Z,5.47
2023-05-21T03:22:07.619Z,7.40
2023-05-21T03:24:35.544Z,6.43
2023-05-21T03:27:02.090Z,6.35
2023-05-21T03:29:28.893Z,7.65
2023-05-21T03:31:55.924Z,6.65
2023-05-21T03:34:22.581Z,7.15
2023-05-21T03:36:49.649Z,7.88
2023-05-21T03:39:16.297Z,5.95
2023-05-21T03:41:44.205Z,8.52
2023-05-21T03:44:10.747Z,9.07
2023-05-21T03:46:37.293Z,8.55
2023-05-21T03:49:03.861Z,5.60
2023-05-21T03:51:30.446Z,6.50
2023-05-21T03:53:57.725Z,8.98
2023-05-21T03:56:24.237Z,7.72
2023-05-21T03:58:52.151Z,6.95
2023-05-21T04:01:18.806Z,6.10
2023-05-21T04:03:45.521Z,7.47
2023-05-21T04:06:12.209Z,6.45
2023-05-21T04:08:38.772Z,6.25
2023-05-21T04:11:05.411Z,5.90
2023-05-21T04:13:31.969Z,5.70
2023-05-21T04:15:59.988Z,8.38
2023-05-21T04:18:26.727Z,6.57
2023-05-21T04:20:53.433Z,5.10
2023-05-21T04:23:19.973Z,8.25
2023-05-21T04:25:46.536Z,6.60
2023-05-21T04:28:13.059Z,6.85
2023-05-21T04:30:39.598Z,5.82
2023-05-21T04:33:07.582Z,5.53
2023-05-21T04:35:34.313Z,8.18
2023-05-21T04:38:02.971Z,6.45
2023-05-21T04:40:30.704Z,5.45
2023-05-21T04:42:57.259Z,7.60
2023-05-21T04:45:23.799Z,5.32
2023-05-21T04:47:50.394Z,5.25
2023-05-21T04:50:18.402Z,7.88
2023-05-21T04:52:44.943Z,6.35
2023-05-21T04:55:11.571Z,6.13
2023-05-21T04:57:38.081Z,6.40
2023-05-21T05:00:05.824Z,6.07
2023-05-21T05:02:32.378Z,7.03
2023-05-21T05:04:58.927Z,6.88
2023-05-21T05:07:26.777Z,6.50
2023-05-21T05:09:53.304Z,7.13
2023-05-21T05:12:19.825Z,6.82
2023-05-21T05:14:46.375Z,6.32
2023-05-21T05:17:12.914Z,10.50
2023-05-21T05:19:39.454Z,6.45
2023-05-21T05:22:06.062Z,6.38
2023-05-21T05:24:33.921Z,7.18
2023-05-21T05:27:00.616Z,6.80
2023-05-21T05:29:27.148Z,9.00
2023-05-21T05:31:53.708Z,7.15
2023-05-21T05:34:20.221Z,6.75
2023-05-21T05:36:46.751Z,6.90
2023-05-21T05:39:13.648Z,6.03
2023-05-21T05:41:41.539Z,8.27
2023-05-21T05:44:10.739Z,7.07
2023-05-21T05:46:37.836Z,6.97
2023-05-21T05:49:04.601Z,7.05
2023-05-21T05:51:31.166Z,7.40
2023-05-21T05:53:57.721Z,6.18
2023-05-21T05:56:24.267Z,6.70
2023-05-21T05:58:52.152Z,8.88
2023-05-21T06:01:19.013Z,6.43
2023-05-21T06:03:45.652Z,6.70
2023-05-21T06:06:12.447Z,7.90
2023-05-21T06:08:39.088Z,6.68
2023-05-21T06:11:05.715Z,8.05
2023-05-21T06:13:32.246Z,8.70
2023-05-21T06:16:00.148Z,6.45
2023-05-21T06:18:26.765Z,9.15
2023-05-21T06:20:53.335Z,9.48
2023-05-21T06:23:19.876Z,9.13
2023-05-21T06:25:46.602Z,7.82
2023-05-21T06:28:13.131Z,11.85
2023-05-21T06:30:39.674Z,8.23
2023-05-21T06:33:07.681Z,10.18
2023-05-21T06:35:34.370Z,9.95
2023-05-21T06:38:00.936Z,7.85
2023-05-21T06:40:27.597Z,8.27
2023-05-21T06:42:54.187Z,6.72
2023-05-21T06:45:20.819Z,7.93
2023-05-21T06:47:47.453Z,7.93
2023-05-21T06:50:15.537Z,7.47
2023-05-21T06:52:42.085Z,6.63
2023-05-21T06:55:09.323Z,8.52
2023-05-21T06:57:38.078Z,7.45
2023-05-21T07:00:05.365Z,7.90
2023-05-21T07:02:31.983Z,7.47
2023-05-21T07:04:58.596Z,10.02
2023-05-21T07:07:26.505Z,9.75
2023-05-21T07:09:53.055Z,9.20
2023-05-21T07:12:19.633Z,7.78
2023-05-21T07:14:46.145Z,8.00
2023-05-21T07:17:12.702Z,9.23
2023-05-21T07:19:39.221Z,8.23
2023-05-21T07:22:05.789Z,7.70
2023-05-21T07:24:33.737Z,8.18
2023-05-21T07:27:01.901Z,9.13
2023-05-21T07:29:29.903Z,9.52
2023-05-21T07:31:56.440Z,9.63
2023-05-21T07:34:22.963Z,9.05
2023-05-21T07:36:49.465Z,8.13
2023-05-21T07:39:16.044Z,10.70
2023-05-21T07:41:43.920Z,11.23
2023-05-21T07:44:10.471Z,10.32
2023-05-21T07:46:37.043Z,8.38
2023-05-21T07:49:03.555Z,8.40
2023-05-21T07:51:30.159Z,13.10
2023-05-21T07:53:56.695Z,9.25
2023-05-21T07:56:23.443Z,10.00
2023-05-21T07:58:51.271Z,8.80
2023-05-21T08:01:17.890Z,9.98
2023-05-21T08:03:44.704Z,11.15
2023-05-21T08:06:11.374Z,8.07
2023-05-21T08:08:37.907Z,10.65
2023-05-21T08:11:04.572Z,8.40
2023-05-21T08:13:31.108Z,10.02
2023-05-21T08:15:59.090Z,10.13
2023-05-21T08:18:25.694Z,10.13
2023-05-21T08:20:52.235Z,10.18
2023-05-21T08:23:18.854Z,10.40
2023-05-21T08:25:45.460Z,12.63
2023-05-21T08:28:11.994Z,9.77
2023-05-21T08:30:38.516Z,8.68
2023-05-21T08:33:06.460Z,9.68
2023-05-21T08:35:33.054Z,12.70
2023-05-21T08:37:59.618Z,13.32
2023-05-21T08:40:26.223Z,9.05
2023-05-21T08:42:52.868Z,11.45
2023-05-21T08:45:21.386Z,14.25
2023-05-21T08:47:47.986Z,12.35
2023-05-21T08:50:17.029Z,12.05
2023-05-21T08:52:43.599Z,12.55
2023-05-21T08:55:10.583Z,12.75
2023-05-21T08:57:37.275Z,11.98
2023-05-21T09:00:05.043Z,10.68
2023-05-21T09:02:34.596Z,9.88
2023-05-21T09:05:01.742Z,12.43
2023-05-21T09:07:31.231Z,12.23
2023-05-21T09:09:58.986Z,11.02
2023-05-21T09:12:26.073Z,15.40
2023-05-21T09:14:53.131Z,11.50
2023-05-21T09:17:20.459Z,17.17
2023-05-21T09:20:07.236Z,11.77
2023-05-21T09:22:35.583Z,9.20
2023-05-21T09:25:04.748Z,12.10
2023-05-21T09:27:32.409Z,10.60
2023-05-21T09:29:59.001Z,11.85
2023-05-21T09:32:25.551Z,12.25
2023-05-21T09:34:52.134Z,14.30
2023-05-21T09:37:27.067Z,14.05
2023-05-21T09:39:55.713Z,12.20
2023-05-21T09:42:22.319Z,13.10
2023-05-21T09:44:48.931Z,12.02
2023-05-21T09:47:19.991Z,10.82
2023-05-21T09:49:46.646Z,12.60
2023-05-21T09:52:13.284Z,13.77
2023-05-21T09:54:40.234Z,12.75
2023-05-21T09:57:08.203Z,12.35
2023-05-21T09:59:39.713Z,12.90
2023-05-21T10:02:17.720Z,14.73
2023-05-21T10:04:48.802Z,11.93
2023-05-21T10:07:18.287Z,14.13
2023-05-21T10:09:46.945Z,15.80
2023-05-21T10:12:17.882Z,12.15
2023-05-21T10:14:50.217Z,13.95
2023-05-21T10:17:17.351Z,15.02
2023-05-21T10:19:46.355Z,13.90
2023-05-21T10:22:13.891Z,12.32
2023-05-21T10:24:41.037Z,14.90
2023-05-21T10:27:07.585Z,13.63
2023-05-21T10:29:37.322Z,15.60
2023-05-21T10:32:05.437Z,14.38
2023-05-21T10:34:32.047Z,15.38
2023-05-21T10:37:01.504Z,14.43
2023-05-21T10:39:29.757Z,16.95
2023-05-21T10:42:05.496Z,14.48
2023-05-21T10:44:44.216Z,13.50
2023-05-21T10:47:40.399Z,15.15
2023-05-21T10:50:26.561Z,14.30
2023-05-21T10:53:10.655Z,13.02
2023-05-21T10:55:51.541Z,17.58
2023-05-21T10:58:47.537Z,14.00
2023-05-21T11:01:17.036Z,13.15
2023-05-21T11:03:43.859Z,13.90
2023-05-21T11:06:10.621Z,15.13
2023-05-21T11:08:38.458Z,14.60
2023-05-21T11:11:05.220Z,16.20
2023-05-21T11:13:45.582Z,18.75
2023-05-21T11:16:17.422Z,14.32
2023-05-21T11:19:02.917Z,14.13
2023-05-21T11:21:31.137Z,15.85
2023-05-21T11:24:05.953Z,14.45
2023-05-21T11:27:00.339Z,14.80
2023-05-21T11:29:47.033Z,13.52
2023-05-21T11:32:15.412Z,14.70
2023-05-21T11:34:44.222Z,16.80
2023-05-21T11:37:33.636Z,15.35
2023-05-21T11:40:24.307Z,15.70
2023-05-21T11:42:52.544Z,14.55
2023-05-21T11:45:20.487Z,14.15
2023-05-21T11:47:48.960Z,18.10
2023-05-21T11:50:16.720Z,15.10
2023-05-21T11:52:44.003Z,16.88
2023-05-21T11:55:10.803Z,17.80
2023-05-21T11:57:41.088Z,15.00
2023-05-21T12:00:13.825Z,17.08
2023-05-21T12:02:45.257Z,17.38
2023-05-21T12:05:13.329Z,17.33
2023-05-21T12:07:40.002Z,15.90
2023-05-21T12:10:08.696Z,14.98
2023-05-21T12:12:50.116Z,14.50
2023-05-21T12:15:21.559Z,15.57
2023-05-21T12:17:49.976Z,15.32
2023-05-21T12:20:18.723Z,18.15
2023-05-21T12:22:45.360Z,17.52
2023-05-21T12:25:11.906Z,15.32
2023-05-21T12:27:39.196Z,17.35
2023-05-21T12:30:07.286Z,17.55
2023-05-21T12:32:34.022Z,15.25
2023-05-21T12:35:00.608Z,15.70
2023-05-21T12:37:30.116Z,15.60
2023-05-21T12:39:59.389Z,16.02
2023-05-21T12:42:26.984Z,15.93
2023-05-21T12:44:54.243Z,16.08
2023-05-21T12:47:23.837Z,16.17
2023-05-21T12:49:55.283Z,13.88
2023-05-21T12:52:22.377Z,15.18
2023-05-21T12:54:52.292Z,22.65
2023-05-21T12:57:20.269Z,24.52
2023-05-21T12:59:48.367Z,19.00
2023-05-21T13:02:25.139Z,15.18
2023-05-21T13:04:56.325Z,15.35
2023-05-21T13:07:23.722Z,17.65
2023-05-21T13:09:52.003Z,15.40
2023-05-21T13:12:18.882Z,17.20
2023-05-21T13:14:45.424Z,16.30
2023-05-21T13:17:12.323Z,14.98
2023-05-21T13:19:38.900Z,17.45
2023-05-21T13:22:05.567Z,14.65
2023-05-21T13:24:32.067Z,16.17
2023-05-21T13:26:59.966Z,12.65
2023-05-21T13:29:26.495Z,14.93
2023-05-21T13:31:53.017Z,19.30
2023-05-21T13:34:19.574Z,16.25
2023-05-21T13:36:46.226Z,15.55
2023-05-21T13:39:12.760Z,16.75
2023-05-21T13:41:39.307Z,15.38
2023-05-21T13:44:07.230Z,12.77
2023-05-21T13:46:33.828Z,14.75
2023-05-21T13:49:00.378Z,14.73
2023-05-21T13:53:57.616Z,18.27
2023-05-21T13:56:24.159Z,16.80
2023-05-21T13:58:50.666Z,19.13
2023-05-21T14:01:18.647Z,19.33
2023-05-21T14:03:45.255Z,21.02
2023-05-21T14:06:11.820Z,15.50
2023-05-21T14:08:38.409Z,18.60
2023-05-21T14:11:05.161Z,13.05
2023-05-21T14:13:31.679Z,15.25
2023-05-21T14:15:58.284Z,15.30
2023-05-21T14:18:26.256Z,15.98
2023-05-21T14:20:53.571Z,16.65
2023-05-21T14:23:20.170Z,15.70
2023-05-21T14:25:46.710Z,15.35
2023-05-21T14:28:13.250Z,19.05
2023-05-21T14:30:39.797Z,16.58
2023-05-21T14:33:06.357Z,15.52
2023-05-21T14:35:34.429Z,16.45
2023-05-21T14:38:01.176Z,15.40
2023-05-21T14:40:27.743Z,15.43
2023-05-21T14:42:54.305Z,15.73
2023-05-21T14:45:20.860Z,13.98
2023-05-21T14:47:47.722Z,17.70
2023-05-21T14:50:15.886Z,15.43
2023-05-21T14:52:43.834Z,15.07
2023-05-21T14:55:10.782Z,14.57
2023-05-21T14:57:37.328Z,14.40
2023-05-21T15:00:04.947Z,16.15
2023-05-21T15:02:31.616Z,13.90
2023-05-21T15:04:58.210Z,16.50
2023-05-21T15:07:24.745Z,15.45
2023-05-21T15:09:52.658Z,18.88
2023-05-21T15:12:19.231Z,14.02
2023-05-21T15:14:45.861Z,17.92
2023-05-21T15:17:12.414Z,13.05
2023-05-21T15:19:39.061Z,15.05
2023-05-21T15:22:05.583Z,12.88
2023-05-21T15:24:32.116Z,13.93
2023-05-21T15:26:59.974Z,14.32
2023-05-21T15:29:26.501Z,15.02
2023-05-21T15:31:53.012Z,14.63
2023-05-21T15:34:19.630Z,14.30
2023-05-21T15:36:46.235Z,16.08
2023-05-21T15:39:12.762Z,16.83
2023-05-21T15:41:40.083Z,12.88
2023-05-21T15:44:07.955Z,12.02
2023-05-21T15:46:34.513Z,14.35
2023-05-21T15:49:01.098Z,16.27
2023-05-21T15:51:27.592Z,14.93
2023-05-21T15:53:54.115Z,17.38
2023-05-21T15:56:20.663Z,15.50
2023-05-21T15:58:47.218Z,16.55
2023-05-21T16:01:15.175Z,12.80
2023-05-21T16:03:41.790Z,16.48
2023-05-21T16:06:08.335Z,14.15
2023-05-21T16:08:34.868Z,16.98
2023-05-21T16:11:01.455Z,17.63
2023-05-21T16:13:27.990Z,13.23
2023-05-21T16:15:54.523Z,14.32
2023-05-21T16:18:22.410Z,13.45
2023-05-21T16:20:48.922Z,15.82
2023-05-21T16:23:15.480Z,17.98
2023-05-21T16:25:42.065Z,15.05
2023-05-21T16:28:08.574Z,16.27
2023-05-21T16:30:35.108Z,13.60
2023-05-21T16:33:01.793Z,13.88
2023-05-21T16:35:29.719Z,15.18
2023-05-21T16:37:56.305Z,17.92
2023-05-21T16:40:22.848Z,14.38
2023-05-21T16:42:49.530Z,16.65
2023-05-21T16:45:16.117Z,13.30
2023-05-21T16:47:42.647Z,21.27
2023-05-21T16:50:09.926Z,14.30
2023-05-21T16:52:37.780Z,13.60
2023-05-21T16:55:05.067Z,14.32
2023-05-21T16:57:31.579Z,13.10
2023-05-21T16:59:58.200Z,15.60
2023-05-21T17:02:24.823Z,16.25
2023-05-21T17:04:51.428Z,13.23
2023-05-21T17:07:17.982Z,13.35
2023-05-21T17:09:45.848Z,13.82
2023-05-21T17:12:12.405Z,13.88
2023-05-21T17:14:39.679Z,11.27
2023-05-21T17:17:06.310Z,15.60
2023-05-21T17:19:32.884Z,12.32
2023-05-21T17:21:59.467Z,16.42
2023-05-21T17:24:26.010Z,13.88
2023-05-21T17:26:53.975Z,14.75
2023-05-21T17:29:20.495Z,12.70
2023-05-21T17:31:47.104Z,14.13
2023-05-21T17:34:13.697Z,13.63
2023-05-21T17:36:40.272Z,12.25
2023-05-21T17:39:06.785Z,15.65
2023-05-21T17:41:33.322Z,14.98
2023-05-21T17:44:01.251Z,14.00
2023-05-21T17:46:27.798Z,16.23
2023-05-21T17:48:54.328Z,14.25
2023-05-21T17:51:20.915Z,11.82
2023-05-21T17:53:47.434Z,13.90
2023-05-21T17:56:14.011Z,12.02
2023-05-21T17:58:40.551Z,13.70
2023-05-21T18:01:08.509Z,13.25
2023-05-21T18:03:35.131Z,14.00
2023-05-21T18:06:01.707Z,15.48
2023-05-21T18:08:28.323Z,14.73
2023-05-21T18:10:54.874Z,13.25
2023-05-21T18:13:21.382Z,16.45
2023-05-21T18:15:47.958Z,15.85
2023-05-21T18:18:16.082Z,16.25
2023-05-21T18:20:43.742Z,15.45
2023-05-21T18:23:10.288Z,15.65
2023-05-21T18:25:36.904Z,12.82
2023-05-21T18:28:03.498Z,13.10
2023-05-21T18:30:30.031Z,14.55
2023-05-21T18:32:56.652Z,15.18
2023-05-21T18:35:24.592Z,15.02
2023-05-21T18:37:51.172Z,15.43
2023-05-21T18:40:17.898Z,12.90
2023-05-21T18:42:44.431Z,13.15
2023-05-21T18:45:11.562Z,14.02
2023-05-21T18:47:38.317Z,13.98
2023-05-21T18:50:06.079Z,15.15
2023-05-21T18:52:33.938Z,16.35
2023-05-21T18:55:00.455Z,13.93
2023-05-21T18:57:26.982Z,18.10
2023-05-21T18:59:53.514Z,16.95
2023-05-21T19:02:20.210Z,14.25
2023-05-21T19:04:46.843Z,14.00
2023-05-21T19:07:13.365Z,13.40
2023-05-21T19:09:41.331Z,14.77
2023-05-21T19:12:08.274Z,12.75
2023-05-21T19:14:34.867Z,16.58
2023-05-21T19:17:01.440Z,13.90
2023-05-21T19:19:28.088Z,17.70
2023-05-21T19:21:54.795Z,13.40
2023-05-21T19:24:21.352Z,14.27
2023-05-21T19:26:49.206Z,15.20
2023-05-21T19:29:15.736Z,16.55
2023-05-21T19:31:42.271Z,15.40
2023-05-21T19:34:08.774Z,14.50
2023-05-21T19:36:44.688Z,15.90
2023-05-21T19:39:19.155Z,15.68
2023-05-21T19:41:45.982Z,16.25
2023-05-21T19:44:13.862Z,13.48
2023-05-21T19:46:40.467Z,14.35
2023-05-21T19:49:07.006Z,15.70
2023-05-21T19:51:33.553Z,16.20
2023-05-21T19:54:00.131Z,15.38
2023-05-21T19:56:26.875Z,12.95
2023-05-21T19:58:53.400Z,14.38
2023-05-21T20:01:21.425Z,12.93
2023-05-21T20:03:48.065Z,12.25
2023-05-21T20:06:14.726Z,15.75
2023-05-21T20:08:41.261Z,16.80
2023-05-21T20:11:07.834Z,15.25
2023-05-21T20:13:34.400Z,14.23
2023-05-21T20:16:00.927Z,15.02
2023-05-21T20:18:28.817Z,15.77
2023-05-21T20:20:55.352Z,16.48
2023-05-21T20:23:21.883Z,17.80
2023-05-21T20:25:48.490Z,18.27
2023-05-21T20:28:15.017Z,17.95
2023-05-21T20:30:52.923Z,17.80
2023-05-21T20:33:19.530Z,16.77
2023-05-21T20:35:47.524Z,19.33
2023-05-21T20:38:14.061Z,17.48
2023-05-21T20:40:40.563Z,19.60
2023-05-21T20:43:07.082Z,18.38
2023-05-21T20:45:33.714Z,19.13
2023-05-21T20:48:00.507Z,19.25
2023-05-21T20:50:27.104Z,18.42
2023-05-21T20:52:55.019Z,17.05
2023-05-21T20:55:21.546Z,21.15
2023-05-21T20:57:48.080Z,21.48
2023-05-21T21:00:15.101Z,17.73
2023-05-21T21:02:41.727Z,19.75
2023-05-21T21:05:08.928Z,20.75
2023-05-21T21:07:35.853Z,18.58
2023-05-21T21:10:04.787Z,17.63
2023-05-21T21:12:31.368Z,19.27
2023-05-21T21:14:57.897Z,17.55
2023-05-21T21:17:24.460Z,16.10
2023-05-21T21:19:51.074Z,15.88
2023-05-21T21:22:17.753Z,16.33
2023-05-21T21:24:44.284Z,11.88
2023-05-21T21:27:12.153Z,13.90
2023-05-21T21:29:38.787Z,13.88
2023-05-21T21:32:06.223Z,13.02
2023-05-21T21:34:32.833Z,15.15
2023-05-21T21:36:59.393Z,16.35
2023-05-21T21:39:25.911Z,13.13
2023-05-21T21:41:52.467Z,14.32
2023-05-21T21:44:20.426Z,15.35
2023-05-21T21:46:47.094Z,12.13
2023-05-21T21:49:13.715Z,15.25
2023-05-21T21:51:40.513Z,10.77
2023-05-21T21:54:07.028Z,14.50
2023-05-21T21:56:33.607Z,14.25
2023-05-21T21:59:00.162Z,12.18
2023-05-21T22:01:28.704Z,17.17
2023-05-21T22:03:55.275Z,17.00
2023-05-21T22:06:21.811Z,14.00
2023-05-21T22:08:48.358Z,13.40
2023-05-21T22:11:15.027Z,13.40
2023-05-21T22:13:41.634Z,15.98
2023-05-21T22:16:08.288Z,16.75
2023-05-21T22:18:40.184Z,14.88
2023-05-21T22:21:07.894Z,17.02
2023-05-21T22:23:34.453Z,16.42
2023-05-21T22:26:01.000Z,16.42
2023-05-21T22:28:27.526Z,14.50
2023-05-21T22:30:54.101Z,16.00
2023-05-21T22:33:20.720Z,14.68
2023-05-21T22:35:48.614Z,17.63
2023-05-21T22:38:15.189Z,15.20
2023-05-21T22:40:41.745Z,17.13
2023-05-21T22:43:08.366Z,14.85
2023-05-21T22:45:34.885Z,14.57
2023-05-21T22:48:01.457Z,16.42
2023-05-21T22:50:28.002Z,18.02
2023-05-21T22:52:55.985Z,15.98
2023-05-21T22:55:22.556Z,16.95
2023-05-21T22:57:49.094Z,18.90
2023-05-21T23:00:16.242Z,23.90
2023-05-21T23:02:42.885Z,18.10
2023-05-21T23:05:09.717Z,18.23
2023-05-21T23:07:36.267Z,20.15
2023-05-21T23:10:04.968Z,19.13
2023-05-21T23:12:31.521Z,19.60
2023-05-21T23:14:58.116Z,18.42
2023-05-21T23:17:24.754Z,18.60
2023-05-21T23:19:51.341Z,21.30
2023-05-21T23:22:18.073Z,16.40
2023-05-21T23:24:44.595Z,18.30
2023-05-21T23:27:12.572Z,19.92
2023-05-21T23:29:39.118Z,16.80
2023-05-21T23:32:06.097Z,18.42
2023-05-21T23:34:32.846Z,17.83
2023-05-21T23:37:00.529Z,22.63
2023-05-21T23:39:27.627Z,17.23
2023-05-21T23:41:54.699Z,17.05
2023-05-21T23:44:22.624Z,21.33
2023-05-21T23:46:49.153Z,19.20
2023-05-21T23:49:15.834Z,17.27
2023-05-21T23:51:42.405Z,16.50
2023-05-21T23:54:08.957Z,18.55
2023-05-21T23:56:35.543Z,19.38
2023-05-21T23:59:02.116Z,18.83
